sensor_id;sensor_type;location;lat;lon;timestamp;P1;durP1;ratioP1;P2;durP2;ratioP2
14603;SDS011;7388;51.078;13.740;2023-03-01T00:01:33;23.63;;;17.60;;
14603;SDS011;7388;51.078;13.740;2023-03-01T00:03:59;20.20;;;16.50;;
14603;SDS011;7388;51.078;13.740;2023-03-01T00:06:25;25.98;;;18.42;;
14603;SDS011;7388;51.078;13.740;2023-03-01T00:08:51;32.33;;;16.60;;
14603;SDS011;7388;51.078;13.740;2023-03-01T00:11:18;35.35;;;16.80;;
14603;SDS011;7388;51.078;13.740;2023-03-01T00:13:49;21.75;;;14.55;;
14603;SDS011;7388;51.078;13.740;2023-03-01T00:16:19;24.70;;;15.32;;
14603;SDS011;7388;51.078;13.740;2023-03-01T00:18:47;19.98;;;15.70;;
14603;SDS011;7388;51.078;13.740;2023-03-01T00:21:13;22.85;;;15.32;;
14603;SDS011;7388;51.078;13.740;2023-03-01T00:23:39;26.33;;;17.20;;
14603;SDS011;7388;51.078;13.740;2023-03-01T00:26:06;23.55;;;16.70;;
14603;SDS011;7388;51.078;13.740;2023-03-01T00:28:33;24.67;;;15.02;;
14603;SDS011;7388;51.078;13.740;2023-03-01T00:31:03;25.93;;;15.67;;
14603;SDS011;7388;51.078;13.740;2023-03-01T00:33:29;26.25;;;16.48;;
14603;SDS011;7388;51.078;13.740;2023-03-01T00:35:57;18.23;;;13.98;;
14603;SDS011;7388;51.078;13.740;2023-03-01T00:38:23;22.83;;;15.07;;
14603;SDS011;7388;51.078;13.740;2023-03-01T00:40:49;28.47;;;17.87;;
14603;SDS011;7388;51.078;13.740;2023-03-01T00:43:15;25.73;;;17.00;;
14603;SDS011;7388;51.078;13.740;2023-03-01T00:45:40;24.30;;;17.03;;
14603;SDS011;7388;51.078;13.740;2023-03-01T00:48:06;21.50;;;15.10;;
14603;SDS011;7388;51.078;13.740;2023-03-01T00:50:32;28.00;;;16.75;;
14603;SDS011;7388;51.078;13.740;2023-03-01T00:52:58;20.23;;;15.30;;
14603;SDS011;7388;51.078;13.740;2023-03-01T00:55:24;28.03;;;16.43;;
14603;SDS011;7388;51.078;13.740;2023-03-01T00:57:50;20.33;;;15.48;;
14603;SDS011;7388;51.078;13.740;2023-03-01T01:00:16;23.20;;;15.80;;
14603;SDS011;7388;51.078;13.740;2023-03-01T01:02:44;25.38;;;17.17;;
14603;SDS011;7388;51.078;13.740;2023-03-01T01:05:10;23.63;;;17.42;;
14603;SDS011;7388;51.078;13.740;2023-03-01T01:07:36;26.27;;;18.27;;
14603;SDS011;7388;51.078;13.740;2023-03-01T01:10:02;27.00;;;16.40;;
14603;SDS011;7388;51.078;13.740;2023-03-01T01:12:28;25.90;;;18.15;;
14603;SDS011;7388;51.078;13.740;2023-03-01T01:14:54;22.97;;;16.57;;
14603;SDS011;7388;51.078;13.740;2023-03-01T01:17:20;22.40;;;16.80;;
14603;SDS011;7388;51.078;13.740;2023-03-01T01:19:45;27.10;;;16.57;;
14603;SDS011;7388;51.078;13.740;2023-03-01T01:22:11;24.93;;;16.47;;
14603;SDS011;7388;51.078;13.740;2023-03-01T01:24:37;22.33;;;15.57;;
14603;SDS011;7388;51.078;13.740;2023-03-01T01:27:03;20.63;;;15.40;;
14603;SDS011;7388;51.078;13.740;2023-03-01T01:29:28;26.53;;;15.90;;
14603;SDS011;7388;51.078;13.740;2023-03-01T01:31:54;20.93;;;15.77;;
14603;SDS011;7388;51.078;13.740;2023-03-01T01:34:21;21.53;;;15.67;;
14603;SDS011;7388;51.078;13.740;2023-03-01T01:36:53;24.73;;;15.70;;
14603;SDS011;7388;51.078;13.740;2023-03-01T01:39:19;25.38;;;15.30;;
14603;SDS011;7388;51.078;13.740;2023-03-01T01:41:45;25.65;;;15.38;;
14603;SDS011;7388;51.078;13.740;2023-03-01T01:44:13;19.95;;;14.38;;
14603;SDS011;7388;51.078;13.740;2023-03-01T01:46:44;28.23;;;15.30;;
14603;SDS011;7388;51.078;13.740;2023-03-01T01:49:27;23.67;;;15.60;;
14603;SDS011;7388;51.078;13.740;2023-03-01T01:52:02;25.65;;;16.92;;
14603;SDS011;7388;51.078;13.740;2023-03-01T01:54:37;27.15;;;16.95;;
14603;SDS011;7388;51.078;13.740;2023-03-01T01:57:06;24.05;;;16.02;;
14603;SDS011;7388;51.078;13.740;2023-03-01T01:59:35;25.98;;;16.42;;
14603;SDS011;7388;51.078;13.740;2023-03-01T02:02:03;24.63;;;15.88;;
14603;SDS011;7388;51.078;13.740;2023-03-01T02:04:29;33.40;;;16.42;;
14603;SDS011;7388;51.078;13.740;2023-03-01T02:06:58;23.33;;;14.88;;
14603;SDS011;7388;51.078;13.740;2023-03-01T02:09:28;24.67;;;15.18;;
14603;SDS011;7388;51.078;13.740;2023-03-01T02:11:57;23.48;;;15.25;;
14603;SDS011;7388;51.078;13.740;2023-03-01T02:14:24;22.73;;;13.75;;
14603;SDS011;7388;51.078;13.740;2023-03-01T02:16:49;20.57;;;14.83;;
14603;SDS011;7388;51.078;13.740;2023-03-01T02:19:38;25.63;;;16.75;;
14603;SDS011;7388;51.078;13.740;2023-03-01T02:22:25;25.40;;;14.77;;
14603;SDS011;7388;51.078;13.740;2023-03-01T02:30:23;21.55;;;15.77;;
14603;SDS011;7388;51.078;13.740;2023-03-01T02:32:50;26.88;;;15.95;;
14603;SDS011;7388;51.078;13.740;2023-03-01T02:35:18;17.83;;;15.10;;
14603;SDS011;7388;51.078;13.740;2023-03-01T02:37:44;19.30;;;15.85;;
14603;SDS011;7388;51.078;13.740;2023-03-01T02:40:13;23.70;;;16.08;;
14603;SDS011;7388;51.078;13.740;2023-03-01T02:42:47;20.90;;;15.50;;
14603;SDS011;7388;51.078;13.740;2023-03-01T02:45:17;21.30;;;15.10;;
14603;SDS011;7388;51.078;13.740;2023-03-01T02:47:42;23.80;;;15.43;;
14603;SDS011;7388;51.078;13.740;2023-03-01T02:52:55;22.98;;;15.30;;
14603;SDS011;7388;51.078;13.740;2023-03-01T02:55:29;30.52;;;14.55;;
14603;SDS011;7388;51.078;13.740;2023-03-01T02:57:55;21.03;;;13.23;;
14603;SDS011;7388;51.078;13.740;2023-03-01T03:00:26;21.98;;;14.98;;
14603;SDS011;7388;51.078;13.740;2023-03-01T03:03:16;24.40;;;18.00;;
14603;SDS011;7388;51.078;13.740;2023-03-01T03:05:42;26.15;;;14.80;;
14603;SDS011;7388;51.078;13.740;2023-03-01T03:08:08;21.70;;;14.70;;
14603;SDS011;7388;51.078;13.740;2023-03-01T03:10:35;17.63;;;13.65;;
14603;SDS011;7388;51.078;13.740;2023-03-01T03:13:09;22.25;;;15.50;;
14603;SDS011;7388;51.078;13.740;2023-03-01T03:15:37;22.55;;;13.82;;
14603;SDS011;7388;51.078;13.740;2023-03-01T03:18:05;22.35;;;15.02;;
14603;SDS011;7388;51.078;13.740;2023-03-01T03:20:37;23.98;;;15.15;;
14603;SDS011;7388;51.078;13.740;2023-03-01T03:23:05;23.23;;;15.38;;
14603;SDS011;7388;51.078;13.740;2023-03-01T03:25:31;24.47;;;16.50;;
14603;SDS011;7388;51.078;13.740;2023-03-01T03:27:57;24.00;;;14.30;;
14603;SDS011;7388;51.078;13.740;2023-03-01T03:30:27;24.42;;;15.18;;
14603;SDS011;7388;51.078;13.740;2023-03-01T03:32:55;22.65;;;14.65;;
14603;SDS011;7388;51.078;13.740;2023-03-01T03:35:26;26.35;;;15.27;;
14603;SDS011;7388;51.078;13.740;2023-03-01T03:37:55;25.80;;;15.70;;
14603;SDS011;7388;51.078;13.740;2023-03-01T03:40:50;21.83;;;14.15;;
14603;SDS011;7388;51.078;13.740;2023-03-01T03:43:19;18.90;;;13.27;;
14603;SDS011;7388;51.078;13.740;2023-03-01T03:45:47;25.70;;;15.38;;
14603;SDS011;7388;51.078;13.740;2023-03-01T03:48:15;22.52;;;15.32;;
14603;SDS011;7388;51.078;13.740;2023-03-01T03:50:41;21.45;;;14.65;;
14603;SDS011;7388;51.078;13.740;2023-03-01T03:53:12;24.00;;;16.13;;
14603;SDS011;7388;51.078;13.740;2023-03-01T03:55:38;31.70;;;16.43;;
14603;SDS011;7388;51.078;13.740;2023-03-01T03:58:05;20.13;;;14.63;;
14603;SDS011;7388;51.078;13.740;2023-03-01T04:00:37;22.40;;;13.52;;
14603;SDS011;7388;51.078;13.740;2023-03-01T04:03:05;23.45;;;15.85;;
14603;SDS011;7388;51.078;13.740;2023-03-01T04:05:31;20.83;;;15.52;;
14603;SDS011;7388;51.078;13.740;2023-03-01T04:07:57;24.60;;;16.43;;
14603;SDS011;7388;51.078;13.740;2023-03-01T04:10:27;22.85;;;14.05;;
14603;SDS011;7388;51.078;13.740;2023-03-01T04:12:54;22.83;;;14.65;;
14603;SDS011;7388;51.078;13.740;2023-03-01T04:15:21;23.33;;;15.48;;
14603;SDS011;7388;51.078;13.740;2023-03-01T04:17:49;25.58;;;15.85;;
14603;SDS011;7388;51.078;13.740;2023-03-01T04:20:18;23.77;;;14.82;;
14603;SDS011;7388;51.078;13.740;2023-03-01T04:22:52;26.63;;;18.08;;
14603;SDS011;7388;51.078;13.740;2023-03-01T04:25:23;20.25;;;14.63;;
14603;SDS011;7388;51.078;13.740;2023-03-01T04:27:49;20.70;;;13.60;;
14603;SDS011;7388;51.078;13.740;2023-03-01T04:30:15;21.53;;;13.97;;
14603;SDS011;7388;51.078;13.740;2023-03-01T04:32:41;23.42;;;14.35;;
14603;SDS011;7388;51.078;13.740;2023-03-01T04:35:06;20.37;;;14.10;;
14603;SDS011;7388;51.078;13.740;2023-03-01T04:37:33;22.80;;;12.93;;
14603;SDS011;7388;51.078;13.740;2023-03-01T04:39:59;22.20;;;14.98;;
14603;SDS011;7388;51.078;13.740;2023-03-01T04:42:26;29.13;;;15.80;;
14603;SDS011;7388;51.078;13.740;2023-03-01T04:44:51;21.23;;;15.27;;
14603;SDS011;7388;51.078;13.740;2023-03-01T04:47:17;24.23;;;16.43;;
14603;SDS011;7388;51.078;13.740;2023-03-01T04:49:43;20.40;;;16.30;;
14603;SDS011;7388;51.078;13.740;2023-03-01T04:52:09;29.27;;;17.60;;
14603;SDS011;7388;51.078;13.740;2023-03-01T04:54:35;29.03;;;16.47;;
14603;SDS011;7388;51.078;13.740;2023-03-01T04:57:01;25.33;;;16.60;;
14603;SDS011;7388;51.078;13.740;2023-03-01T04:59:27;23.10;;;16.60;;
14603;SDS011;7388;51.078;13.740;2023-03-01T05:01:54;20.77;;;15.83;;
14603;SDS011;7388;51.078;13.740;2023-03-01T05:04:24;23.63;;;16.65;;
14603;SDS011;7388;51.078;13.740;2023-03-01T05:06:50;24.05;;;17.05;;
14603;SDS011;7388;51.078;13.740;2023-03-01T05:09:16;21.48;;;17.55;;
14603;SDS011;7388;51.078;13.740;2023-03-01T05:11:42;25.70;;;17.55;;
14603;SDS011;7388;51.078;13.740;2023-03-01T05:14:08;24.35;;;16.33;;
14603;SDS011;7388;51.078;13.740;2023-03-01T05:16:35;27.88;;;17.55;;
14603;SDS011;7388;51.078;13.740;2023-03-01T05:19:02;25.88;;;16.33;;
14603;SDS011;7388;51.078;13.740;2023-03-01T05:21:39;31.17;;;17.55;;
14603;SDS011;7388;51.078;13.740;2023-03-01T05:24:25;25.25;;;15.80;;
14603;SDS011;7388;51.078;13.740;2023-03-01T05:26:51;23.42;;;15.80;;
14603;SDS011;7388;51.078;13.740;2023-03-01T05:29:18;35.15;;;18.20;;
14603;SDS011;7388;51.078;13.740;2023-03-01T05:31:53;25.45;;;18.00;;
14603;SDS011;7388;51.078;13.740;2023-03-01T05:34:27;26.50;;;17.30;;
14603;SDS011;7388;51.078;13.740;2023-03-01T05:36:54;25.83;;;15.60;;
14603;SDS011;7388;51.078;13.740;2023-03-01T05:39:20;20.83;;;13.27;;
14603;SDS011;7388;51.078;13.740;2023-03-01T05:41:48;27.52;;;16.75;;
14603;SDS011;7388;51.078;13.740;2023-03-01T05:44:17;30.60;;;16.98;;
14603;SDS011;7388;51.078;13.740;2023-03-01T05:46:43;27.50;;;17.27;;
14603;SDS011;7388;51.078;13.740;2023-03-01T05:49:10;24.20;;;16.08;;
14603;SDS011;7388;51.078;13.740;2023-03-01T05:51:36;28.27;;;18.45;;
14603;SDS011;7388;51.078;13.740;2023-03-01T05:54:01;21.97;;;16.20;;
14603;SDS011;7388;51.078;13.740;2023-03-01T05:56:27;28.13;;;16.43;;
14603;SDS011;7388;51.078;13.740;2023-03-01T05:58:54;22.83;;;16.35;;
14603;SDS011;7388;51.078;13.740;2023-03-01T06:01:19;20.80;;;15.30;;
14603;SDS011;7388;51.078;13.740;2023-03-01T06:03:45;23.07;;;15.80;;
14603;SDS011;7388;51.078;13.740;2023-03-01T06:06:11;32.53;;;17.10;;
14603;SDS011;7388;51.078;13.740;2023-03-01T06:08:37;28.60;;;16.77;;
14603;SDS011;7388;51.078;13.740;2023-03-01T06:11:02;24.63;;;16.47;;
14603;SDS011;7388;51.078;13.740;2023-03-01T06:13:28;25.27;;;15.37;;
14603;SDS011;7388;51.078;13.740;2023-03-01T06:15:54;23.17;;;15.65;;
14603;SDS011;7388;51.078;13.740;2023-03-01T06:18:21;27.93;;;17.17;;
14603;SDS011;7388;51.078;13.740;2023-03-01T06:20:52;23.73;;;16.23;;
14603;SDS011;7388;51.078;13.740;2023-03-01T06:23:18;21.85;;;14.45;;
14603;SDS011;7388;51.078;13.740;2023-03-01T06:25:44;25.10;;;17.33;;
14603;SDS011;7388;51.078;13.740;2023-03-01T06:28:10;24.60;;;16.00;;
14603;SDS011;7388;51.078;13.740;2023-03-01T06:30:36;26.43;;;18.40;;
14603;SDS011;7388;51.078;13.740;2023-03-01T06:33:01;25.98;;;16.17;;
14603;SDS011;7388;51.078;13.740;2023-03-01T06:35:30;32.63;;;19.13;;
14603;SDS011;7388;51.078;13.740;2023-03-01T06:37:57;27.58;;;18.58;;
14603;SDS011;7388;51.078;13.740;2023-03-01T06:40:24;31.75;;;18.48;;
14603;SDS011;7388;51.078;13.740;2023-03-01T06:42:50;27.70;;;18.20;;
14603;SDS011;7388;51.078;13.740;2023-03-01T06:45:17;31.92;;;20.25;;
14603;SDS011;7388;51.078;13.740;2023-03-01T06:47:44;34.70;;;19.15;;
14603;SDS011;7388;51.078;13.740;2023-03-01T06:50:11;44.42;;;20.50;;
14603;SDS011;7388;51.078;13.740;2023-03-01T06:52:37;47.88;;;20.77;;
14603;SDS011;7388;51.078;13.740;2023-03-01T06:55:03;35.10;;;18.25;;
14603;SDS011;7388;51.078;13.740;2023-03-01T06:57:30;42.25;;;22.67;;
14603;SDS011;7388;51.078;13.740;2023-03-01T06:59:55;37.37;;;20.93;;
14603;SDS011;7388;51.078;13.740;2023-03-01T07:02:21;33.73;;;19.23;;
14603;SDS011;7388;51.078;13.740;2023-03-01T07:04:50;33.47;;;20.20;;
14603;SDS011;7388;51.078;13.740;2023-03-01T07:07:16;29.33;;;19.88;;
14603;SDS011;7388;51.078;13.740;2023-03-01T07:09:43;28.33;;;16.90;;
14603;SDS011;7388;51.078;13.740;2023-03-01T07:12:09;32.05;;;17.95;;
14603;SDS011;7388;51.078;13.740;2023-03-01T07:14:35;33.33;;;21.40;;
14603;SDS011;7388;51.078;13.740;2023-03-01T07:17:01;29.03;;;18.87;;
14603;SDS011;7388;51.078;13.740;2023-03-01T07:19:27;30.20;;;18.53;;
14603;SDS011;7388;51.078;13.740;2023-03-01T07:21:52;32.17;;;19.60;;
14603;SDS011;7388;51.078;13.740;2023-03-01T07:24:18;26.75;;;17.83;;
14603;SDS011;7388;51.078;13.740;2023-03-01T07:26:47;35.83;;;19.83;;
14603;SDS011;7388;51.078;13.740;2023-03-01T07:29:15;32.70;;;19.45;;
14603;SDS011;7388;51.078;13.740;2023-03-01T07:31:40;27.77;;;19.07;;
14603;SDS011;7388;51.078;13.740;2023-03-01T07:34:06;26.23;;;16.87;;
14603;SDS011;7388;51.078;13.740;2023-03-01T07:36:32;26.80;;;18.57;;
14603;SDS011;7388;51.078;13.740;2023-03-01T07:38:58;25.43;;;18.00;;
14603;SDS011;7388;51.078;13.740;2023-03-01T07:41:24;27.13;;;18.83;;
14603;SDS011;7388;51.078;13.740;2023-03-01T07:43:49;27.07;;;17.20;;
14603;SDS011;7388;51.078;13.740;2023-03-01T07:46:15;32.50;;;19.47;;
14603;SDS011;7388;51.078;13.740;2023-03-01T07:48:42;28.88;;;20.17;;
14603;SDS011;7388;51.078;13.740;2023-03-01T07:51:09;23.40;;;15.60;;
14603;SDS011;7388;51.078;13.740;2023-03-01T07:53:35;32.85;;;19.02;;
14603;SDS011;7388;51.078;13.740;2023-03-01T07:56:04;25.33;;;16.97;;
14603;SDS011;7388;51.078;13.740;2023-03-01T07:58:38;24.92;;;17.45;;
14603;SDS011;7388;51.078;13.740;2023-03-01T08:01:06;28.83;;;19.98;;
14603;SDS011;7388;51.078;13.740;2023-03-01T08:03:37;25.73;;;17.45;;
14603;SDS011;7388;51.078;13.740;2023-03-01T08:06:03;28.17;;;18.48;;
14603;SDS011;7388;51.078;13.740;2023-03-01T08:08:30;27.05;;;16.52;;
14603;SDS011;7388;51.078;13.740;2023-03-01T08:10:57;26.90;;;17.30;;
14603;SDS011;7388;51.078;13.740;2023-03-01T08:13:23;26.13;;;18.45;;
14603;SDS011;7388;51.078;13.740;2023-03-01T08:15:49;31.13;;;17.40;;
14603;SDS011;7388;51.078;13.740;2023-03-01T08:18:15;25.00;;;16.77;;
14603;SDS011;7388;51.078;13.740;2023-03-01T08:20:42;23.95;;;18.02;;
14603;SDS011;7388;51.078;13.740;2023-03-01T08:23:07;29.37;;;19.07;;
14603;SDS011;7388;51.078;13.740;2023-03-01T08:25:33;29.50;;;18.87;;
14603;SDS011;7388;51.078;13.740;2023-03-01T08:27:59;22.37;;;17.53;;
14603;SDS011;7388;51.078;13.740;2023-03-01T08:30:24;32.33;;;19.63;;
14603;SDS011;7388;51.078;13.740;2023-03-01T08:32:50;32.37;;;20.03;;
14603;SDS011;7388;51.078;13.740;2023-03-01T08:35:16;28.63;;;18.13;;
14603;SDS011;7388;51.078;13.740;2023-03-01T08:37:42;26.52;;;19.65;;
14603;SDS011;7388;51.078;13.740;2023-03-01T08:40:08;26.83;;;17.53;;
14603;SDS011;7388;51.078;13.740;2023-03-01T08:42:35;27.48;;;18.80;;
14603;SDS011;7388;51.078;13.740;2023-03-01T08:45:02;28.58;;;21.15;;
14603;SDS011;7388;51.078;13.740;2023-03-01T08:47:28;28.73;;;19.50;;
14603;SDS011;7388;51.078;13.740;2023-03-01T08:49:54;27.27;;;19.20;;
14603;SDS011;7388;51.078;13.740;2023-03-01T08:52:20;23.80;;;18.60;;
14603;SDS011;7388;51.078;13.740;2023-03-01T08:54:49;26.92;;;19.65;;
14603;SDS011;7388;51.078;13.740;2023-03-01T08:57:15;27.02;;;21.02;;
14603;SDS011;7388;51.078;13.740;2023-03-01T08:59:41;30.53;;;20.30;;
14603;SDS011;7388;51.078;13.740;2023-03-01T09:02:10;29.10;;;19.13;;
14603;SDS011;7388;51.078;13.740;2023-03-01T09:04:40;25.52;;;19.50;;
14603;SDS011;7388;51.078;13.740;2023-03-01T09:07:07;33.53;;;20.60;;
14603;SDS011;7388;51.078;13.740;2023-03-01T09:09:34;28.35;;;20.17;;
14603;SDS011;7388;51.078;13.740;2023-03-01T09:12:00;26.73;;;20.17;;
14603;SDS011;7388;51.078;13.740;2023-03-01T09:14:26;26.88;;;20.15;;
14603;SDS011;7388;51.078;13.740;2023-03-01T09:16:52;25.15;;;20.35;;
14603;SDS011;7388;51.078;13.740;2023-03-01T09:19:18;25.00;;;18.57;;
14603;SDS011;7388;51.078;13.740;2023-03-01T09:21:44;31.70;;;20.83;;
14603;SDS011;7388;51.078;13.740;2023-03-01T09:24:22;26.92;;;19.42;;
14603;SDS011;7388;51.078;13.740;2023-03-01T09:26:50;27.73;;;19.38;;
14603;SDS011;7388;51.078;13.740;2023-03-01T09:29:19;26.23;;;19.63;;
14603;SDS011;7388;51.078;13.740;2023-03-01T09:31:44;32.83;;;22.37;;
14603;SDS011;7388;51.078;13.740;2023-03-01T09:34:10;34.93;;;21.43;;
14603;SDS011;7388;51.078;13.740;2023-03-01T09:36:36;27.30;;;19.33;;
14603;SDS011;7388;51.078;13.740;2023-03-01T09:39:02;32.03;;;20.15;;
14603;SDS011;7388;51.078;13.740;2023-03-01T09:41:47;25.65;;;18.13;;
14603;SDS011;7388;51.078;13.740;2023-03-01T09:47:12;28.38;;;20.50;;
14603;SDS011;7388;51.078;13.740;2023-03-01T09:49:55;29.13;;;19.42;;
14603;SDS011;7388;51.078;13.740;2023-03-01T10:00:54;25.48;;;19.25;;
14603;SDS011;7388;51.078;13.740;2023-03-01T10:03:28;28.42;;;19.20;;
14603;SDS011;7388;51.078;13.740;2023-03-01T10:06:04;25.40;;;17.30;;
14603;SDS011;7388;51.078;13.740;2023-03-01T10:08:55;27.35;;;19.67;;
14603;SDS011;7388;51.078;13.740;2023-03-01T10:11:30;24.58;;;18.05;;
14603;SDS011;7388;51.078;13.740;2023-03-01T10:16:53;26.02;;;18.00;;
14603;SDS011;7388;51.078;13.740;2023-03-01T10:24:53;24.15;;;17.50;;
14603;SDS011;7388;51.078;13.740;2023-03-01T10:27:34;27.38;;;19.55;;
14603;SDS011;7388;51.078;13.740;2023-03-01T10:32:54;25.52;;;18.50;;
14603;SDS011;7388;51.078;13.740;2023-03-01T10:35:23;24.75;;;16.98;;
14603;SDS011;7388;51.078;13.740;2023-03-01T10:38:24;23.58;;;17.00;;
14603;SDS011;7388;51.078;13.740;2023-03-01T10:40:55;28.30;;;17.88;;
14603;SDS011;7388;51.078;13.740;2023-03-01T10:43:44;29.25;;;18.85;;
14603;SDS011;7388;51.078;13.740;2023-03-01T10:49:34;28.05;;;18.60;;
14603;SDS011;7388;51.078;13.740;2023-03-01T10:51:46;23.45;;;16.67;;
14603;SDS011;7388;51.078;13.740;2023-03-01T10:54:20;22.83;;;16.73;;
14603;SDS011;7388;51.078;13.740;2023-03-01T10:56:51;24.20;;;16.70;;
14603;SDS011;7388;51.078;13.740;2023-03-01T10:59:37;24.50;;;16.48;;
14603;SDS011;7388;51.078;13.740;2023-03-01T11:04:56;23.75;;;15.80;;
14603;SDS011;7388;51.078;13.740;2023-03-01T11:07:22;21.88;;;14.77;;
14603;SDS011;7388;51.078;13.740;2023-03-01T11:09:48;19.53;;;14.20;;
14603;SDS011;7388;51.078;13.740;2023-03-01T11:12:14;19.03;;;14.30;;
14603;SDS011;7388;51.078;13.740;2023-03-01T11:14:47;21.63;;;12.65;;
14603;SDS011;7388;51.078;13.740;2023-03-01T11:17:29;20.85;;;13.98;;
14603;SDS011;7388;51.078;13.740;2023-03-01T11:22:32;16.13;;;12.10;;
14603;SDS011;7388;51.078;13.740;2023-03-01T11:25:00;16.30;;;14.02;;
14603;SDS011;7388;51.078;13.740;2023-03-01T11:30:05;16.20;;;13.02;;
14603;SDS011;7388;51.078;13.740;2023-03-01T11:32:45;18.38;;;13.90;;
14603;SDS011;7388;51.078;13.740;2023-03-01T11:35:31;16.65;;;13.15;;
14603;SDS011;7388;51.078;13.740;2023-03-01T11:38:15;16.80;;;11.45;;
14603;SDS011;7388;51.078;13.740;2023-03-01T11:49:00;12.18;;;9.50;;
14603;SDS011;7388;51.078;13.740;2023-03-01T12:08:49;15.23;;;11.50;;
14603;SDS011;7388;51.078;13.740;2023-03-01T12:20:02;13.57;;;11.30;;
14603;SDS011;7388;51.078;13.740;2023-03-01T12:25:58;19.83;;;14.70;;
14603;SDS011;7388;51.078;13.740;2023-03-01T12:31:46;18.83;;;13.63;;
14603;SDS011;7388;51.078;13.740;2023-03-01T12:40:03;20.40;;;16.13;;
14603;SDS011;7388;51.078;13.740;2023-03-01T12:42:46;22.38;;;15.18;;
14603;SDS011;7388;51.078;13.740;2023-03-01T12:51:01;17.52;;;13.50;;
14603;SDS011;7388;51.078;13.740;2023-03-01T12:54:05;18.58;;;13.70;;
14603;SDS011;7388;51.078;13.740;2023-03-01T12:56:24;22.63;;;16.67;;
14603;SDS011;7388;51.078;13.740;2023-03-01T13:07:04;17.20;;;14.43;;
14603;SDS011;7388;51.078;13.740;2023-03-01T13:20:19;15.73;;;11.80;;
14603;SDS011;7388;51.078;13.740;2023-03-01T13:22:46;14.15;;;11.50;;
14603;SDS011;7388;51.078;13.740;2023-03-01T13:25:17;15.85;;;14.13;;
14603;SDS011;7388;51.078;13.740;2023-03-01T13:27:45;18.85;;;14.32;;
14603;SDS011;7388;51.078;13.740;2023-03-01T13:35:43;19.02;;;12.38;;
14603;SDS011;7388;51.078;13.740;2023-03-01T13:41:09;16.65;;;12.93;;
14603;SDS011;7388;51.078;13.740;2023-03-01T13:43:36;17.23;;;13.82;;
14603;SDS011;7388;51.078;13.740;2023-03-01T13:46:17;18.35;;;14.80;;
14603;SDS011;7388;51.078;13.740;2023-03-01T13:48:47;19.05;;;14.27;;
14603;SDS011;7388;51.078;13.740;2023-03-01T13:51:19;16.30;;;13.00;;
14603;SDS011;7388;51.078;13.740;2023-03-01T13:53:56;18.88;;;14.65;;
14603;SDS011;7388;51.078;13.740;2023-03-01T13:56:24;16.80;;;13.52;;
14603;SDS011;7388;51.078;13.740;2023-03-01T14:01:30;18.90;;;13.95;;
14603;SDS011;7388;51.078;13.740;2023-03-01T14:03:57;21.85;;;15.00;;
14603;SDS011;7388;51.078;13.740;2023-03-01T14:06:25;21.00;;;16.05;;
14603;SDS011;7388;51.078;13.740;2023-03-01T14:09:03;17.48;;;15.45;;
14603;SDS011;7388;51.078;13.740;2023-03-01T14:19:55;21.17;;;14.77;;
14603;SDS011;7388;51.078;13.740;2023-03-01T14:24:54;19.33;;;14.70;;
14603;SDS011;7388;51.078;13.740;2023-03-01T14:27:37;15.30;;;13.30;;
14603;SDS011;7388;51.078;13.740;2023-03-01T14:30:14;19.00;;;13.07;;
14603;SDS011;7388;51.078;13.740;2023-03-01T14:32:40;23.98;;;14.35;;
14603;SDS011;7388;51.078;13.740;2023-03-01T14:35:22;21.00;;;15.07;;
14603;SDS011;7388;51.078;13.740;2023-03-01T14:37:50;21.05;;;15.20;;
14603;SDS011;7388;51.078;13.740;2023-03-01T14:40:35;21.93;;;15.50;;
14603;SDS011;7388;51.078;13.740;2023-03-01T14:43:35;20.40;;;15.45;;
14603;SDS011;7388;51.078;13.740;2023-03-01T14:46:03;18.25;;;12.27;;
14603;SDS011;7388;51.078;13.740;2023-03-01T14:48:28;21.67;;;13.83;;
14603;SDS011;7388;51.078;13.740;2023-03-01T14:50:56;20.80;;;14.43;;
14603;SDS011;7388;51.078;13.740;2023-03-01T14:53:25;16.40;;;12.80;;
14603;SDS011;7388;51.078;13.740;2023-03-01T14:55:59;16.23;;;14.07;;
14603;SDS011;7388;51.078;13.740;2023-03-01T14:58:29;18.40;;;13.82;;
14603;SDS011;7388;51.078;13.740;2023-03-01T15:00:59;25.83;;;16.67;;
14603;SDS011;7388;51.078;13.740;2023-03-01T15:03:38;18.00;;;14.68;;
14603;SDS011;7388;51.078;13.740;2023-03-01T15:06:11;18.38;;;13.95;;
14603;SDS011;7388;51.078;13.740;2023-03-01T15:08:42;19.35;;;13.18;;
14603;SDS011;7388;51.078;13.740;2023-03-01T15:13:47;18.95;;;13.43;;
14603;SDS011;7388;51.078;13.740;2023-03-01T15:16:13;23.65;;;13.90;;
14603;SDS011;7388;51.078;13.740;2023-03-01T15:18:51;18.15;;;14.20;;
14603;SDS011;7388;51.078;13.740;2023-03-01T15:21:23;23.15;;;17.40;;
14603;SDS011;7388;51.078;13.740;2023-03-01T15:26:45;18.52;;;14.40;;
14603;SDS011;7388;51.078;13.740;2023-03-01T15:29:19;18.65;;;14.57;;
14603;SDS011;7388;51.078;13.740;2023-03-01T15:32:00;19.10;;;13.45;;
14603;SDS011;7388;51.078;13.740;2023-03-01T15:34:30;20.40;;;15.13;;
14603;SDS011;7388;51.078;13.740;2023-03-01T15:37:05;17.20;;;13.15;;
14603;SDS011;7388;51.078;13.740;2023-03-01T15:39:52;19.85;;;13.10;;
14603;SDS011;7388;51.078;13.740;2023-03-01T15:47:57;19.55;;;12.88;;
14603;SDS011;7388;51.078;13.740;2023-03-01T15:53:00;19.10;;;13.57;;
14603;SDS011;7388;51.078;13.740;2023-03-01T15:55:30;18.67;;;14.70;;
14603;SDS011;7388;51.078;13.740;2023-03-01T15:58:19;19.50;;;13.63;;
14603;SDS011;7388;51.078;13.740;2023-03-01T16:00:53;18.30;;;13.07;;
14603;SDS011;7388;51.078;13.740;2023-03-01T16:03:21;17.17;;;12.80;;
14603;SDS011;7388;51.078;13.740;2023-03-01T16:05:48;17.35;;;14.32;;
14603;SDS011;7388;51.078;13.740;2023-03-01T16:08:15;18.50;;;12.60;;
14603;SDS011;7388;51.078;13.740;2023-03-01T16:10:42;16.33;;;12.95;;
14603;SDS011;7388;51.078;13.740;2023-03-01T16:13:11;18.55;;;13.63;;
14603;SDS011;7388;51.078;13.740;2023-03-01T16:15:38;18.45;;;13.20;;
14603;SDS011;7388;51.078;13.740;2023-03-01T16:18:04;17.40;;;13.38;;
14603;SDS011;7388;51.078;13.740;2023-03-01T16:20:32;22.13;;;13.05;;
14603;SDS011;7388;51.078;13.740;2023-03-01T16:23:00;17.15;;;13.57;;
14603;SDS011;7388;51.078;13.740;2023-03-01T16:25:27;17.17;;;12.57;;
14603;SDS011;7388;51.078;13.740;2023-03-01T16:27:54;19.33;;;13.80;;
14603;SDS011;7388;51.078;13.740;2023-03-01T16:30:22;16.45;;;12.70;;
14603;SDS011;7388;51.078;13.740;2023-03-01T16:32:48;17.10;;;13.32;;
14603;SDS011;7388;51.078;13.740;2023-03-01T16:35:15;19.20;;;13.77;;
14603;SDS011;7388;51.078;13.740;2023-03-01T16:37:42;19.70;;;12.63;;
14603;SDS011;7388;51.078;13.740;2023-03-01T16:40:29;19.07;;;12.93;;
14603;SDS011;7388;51.078;13.740;2023-03-01T16:42:55;16.08;;;12.15;;
14603;SDS011;7388;51.078;13.740;2023-03-01T16:45:24;21.30;;;13.90;;
14603;SDS011;7388;51.078;13.740;2023-03-01T16:47:51;17.30;;;12.48;;
14603;SDS011;7388;51.078;13.740;2023-03-01T16:50:17;15.85;;;11.73;;
14603;SDS011;7388;51.078;13.740;2023-03-01T16:52:43;17.83;;;12.87;;
14603;SDS011;7388;51.078;13.740;2023-03-01T16:55:09;18.73;;;12.60;;
14603;SDS011;7388;51.078;13.740;2023-03-01T16:57:39;16.67;;;13.63;;
14603;SDS011;7388;51.078;13.740;2023-03-01T17:00:05;17.52;;;13.30;;
14603;SDS011;7388;51.078;13.740;2023-03-01T17:02:34;18.80;;;14.57;;